sensor_id;sensor_type;location;lat;lon;timestamp;P1;durP1;ratioP1;P2;durP2;ratioP2
71435;SDS011;59251;51.326;12.370;2024-01-30T00:00:32;8.63;;;2.83;;
71435;SDS011;59251;51.326;12.370;2024-01-30T00:02:59;9.90;;;3.00;;
71435;SDS011;59251;51.326;12.370;2024-01-30T00:05:27;10.87;;;3.37;;
71435;SDS011;59251;51.326;12.370;2024-01-30T00:07:54;10.07;;;3.05;;
71435;SDS011;59251;51.326;12.370;2024-01-30T00:10:20;10.45;;;3.78;;
71435;SDS011;59251;51.326;12.370;2024-01-30T00:12:47;12.43;;;3.40;;
71435;SDS011;59251;51.326;12.370;2024-01-30T00:15:14;9.43;;;3.25;;
71435;SDS011;59251;51.326;12.370;2024-01-30T00:17:41;12.37;;;3.70;;
71435;SDS011;59251;51.326;12.370;2024-01-30T00:20:08;10.43;;;2.78;;
71435;SDS011;59251;51.326;12.370;2024-01-30T00:22:36;13.43;;;3.47;;
71435;SDS011;59251;51.326;12.370;2024-01-30T00:25:03;9.32;;;2.65;;
71435;SDS011;59251;51.326;12.370;2024-01-30T00:27:31;9.30;;;2.72;;
71435;SDS011;59251;51.326;12.370;2024-01-30T00:29:58;8.73;;;2.80;;
71435;SDS011;59251;51.326;12.370;2024-01-30T00:32:25;10.13;;;2.92;;
71435;SDS011;59251;51.326;12.370;2024-01-30T00:34:51;8.43;;;2.50;;
71435;SDS011;59251;51.326;12.370;2024-01-30T00:37:18;8.25;;;3.05;;
71435;SDS011;59251;51.326;12.370;2024-01-30T00:39:46;8.57;;;2.80;;
71435;SDS011;59251;51.326;12.370;2024-01-30T00:42:13;9.23;;;3.17;;
71435;SDS011;59251;51.326;12.370;2024-01-30T00:44:40;8.07;;;2.95;;
71435;SDS011;59251;51.326;12.370;2024-01-30T00:47:07;7.18;;;2.65;;
71435;SDS011;59251;51.326;12.370;2024-01-30T00:49:33;9.25;;;2.85;;
71435;SDS011;59251;51.326;12.370;2024-01-30T00:52:00;9.00;;;2.30;;
71435;SDS011;59251;51.326;12.370;2024-01-30T00:54:27;9.50;;;2.60;;
71435;SDS011;59251;51.326;12.370;2024-01-30T00:56:55;9.73;;;2.60;;
71435;SDS011;59251;51.326;12.370;2024-01-30T00:59:22;10.30;;;2.92;;
71435;SDS011;59251;51.326;12.370;2024-01-30T01:01:48;8.52;;;2.30;;
71435;SDS011;59251;51.326;12.370;2024-01-30T01:04:15;11.63;;;2.55;;
71435;SDS011;59251;51.326;12.370;2024-01-30T01:06:42;8.87;;;2.23;;
71435;SDS011;59251;51.326;12.370;2024-01-30T01:09:10;7.82;;;2.40;;
71435;SDS011;59251;51.326;12.370;2024-01-30T01:11:37;8.82;;;2.83;;
71435;SDS011;59251;51.326;12.370;2024-01-30T01:14:05;11.63;;;2.72;;
71435;SDS011;59251;51.326;12.370;2024-01-30T01:16:33;7.95;;;2.30;;
71435;SDS011;59251;51.326;12.370;2024-01-30T01:18:59;8.97;;;2.57;;
71435;SDS011;59251;51.326;12.370;2024-01-30T01:21:26;9.50;;;2.40;;
71435;SDS011;59251;51.326;12.370;2024-01-30T01:23:53;7.47;;;2.40;;
71435;SDS011;59251;51.326;12.370;2024-01-30T01:26:19;8.18;;;2.30;;
71435;SDS011;59251;51.326;12.370;2024-01-30T01:28:46;8.98;;;2.67;;
71435;SDS011;59251;51.326;12.370;2024-01-30T01:31:15;9.80;;;3.03;;
71435;SDS011;59251;51.326;12.370;2024-01-30T01:33:42;7.72;;;2.80;;
71435;SDS011;59251;51.326;12.370;2024-01-30T01:36:09;9.43;;;2.75;;
71435;SDS011;59251;51.326;12.370;2024-01-30T01:38:36;8.23;;;2.35;;
71435;SDS011;59251;51.326;12.370;2024-01-30T01:41:03;8.10;;;2.47;;
71435;SDS011;59251;51.326;12.370;2024-01-30T01:43:30;9.53;;;2.60;;
71435;SDS011;59251;51.326;12.370;2024-01-30T01:45:56;7.82;;;2.53;;
71435;SDS011;59251;51.326;12.370;2024-01-30T01:48:24;9.88;;;2.65;;
71435;SDS011;59251;51.326;12.370;2024-01-30T01:50:51;8.07;;;2.72;;
71435;SDS011;59251;51.326;12.370;2024-01-30T01:53:18;9.75;;;2.90;;
71435;SDS011;59251;51.326;12.370;2024-01-30T01:55:45;9.90;;;2.73;;
71435;SDS011;59251;51.326;12.370;2024-01-30T01:58:13;8.32;;;2.47;;
71435;SDS011;59251;51.326;12.370;2024-01-30T02:00:40;10.35;;;2.80;;
71435;SDS011;59251;51.326;12.370;2024-01-30T02:03:08;10.88;;;2.53;;
71435;SDS011;59251;51.326;12.370;2024-01-30T02:05:38;11.33;;;3.10;;
71435;SDS011;59251;51.326;12.370;2024-01-30T02:08:07;7.60;;;2.33;;
71435;SDS011;59251;51.326;12.370;2024-01-30T02:10:34;7.63;;;2.40;;
71435;SDS011;59251;51.326;12.370;2024-01-30T02:13:01;9.53;;;2.93;;
71435;SDS011;59251;51.326;12.370;2024-01-30T02:15:28;8.52;;;3.00;;
71435;SDS011;59251;51.326;12.370;2024-01-30T02:17:55;9.43;;;2.50;;
71435;SDS011;59251;51.326;12.370;2024-01-30T02:20:22;10.07;;;2.63;;
71435;SDS011;59251;51.326;12.370;2024-01-30T02:22:52;8.23;;;2.50;;
71435;SDS011;59251;51.326;12.370;2024-01-30T02:25:29;10.87;;;2.60;;
71435;SDS011;59251;51.326;12.370;2024-01-30T02:27:57;9.48;;;2.85;;
71435;SDS011;59251;51.326;12.370;2024-01-30T02:30:23;9.45;;;2.53;;
71435;SDS011;59251;51.326;12.370;2024-01-30T02:32:50;9.70;;;2.90;;
71435;SDS011;59251;51.326;12.370;2024-01-30T02:35:17;8.27;;;2.47;;
71435;SDS011;59251;51.326;12.370;2024-01-30T02:37:44;11.27;;;3.00;;
71435;SDS011;59251;51.326;12.370;2024-01-30T02:40:12;10.70;;;3.00;;
71435;SDS011;59251;51.326;12.370;2024-01-30T02:42:39;9.45;;;2.88;;
71435;SDS011;59251;51.326;12.370;2024-01-30T02:45:07;10.98;;;2.95;;
71435;SDS011;59251;51.326;12.370;2024-01-30T02:47:34;11.68;;;2.67;;
71435;SDS011;59251;51.326;12.370;2024-01-30T02:50:01;10.30;;;2.50;;
71435;SDS011;59251;51.326;12.370;2024-01-30T02:52:28;10.25;;;2.80;;
71435;SDS011;59251;51.326;12.370;2024-01-30T02:54:55;9.90;;;2.95;;
71435;SDS011;59251;51.326;12.370;2024-01-30T02:57:23;10.48;;;2.80;;
71435;SDS011;59251;51.326;12.370;2024-01-30T02:59:50;9.57;;;2.67;;
71435;SDS011;59251;51.326;12.370;2024-01-30T03:02:17;8.43;;;2.60;;
71435;SDS011;59251;51.326;12.370;2024-01-30T03:04:43;9.82;;;2.97;;
71435;SDS011;59251;51.326;12.370;2024-01-30T03:07:10;9.43;;;2.95;;
71435;SDS011;59251;51.326;12.370;2024-01-30T03:09:37;8.07;;;2.50;;
71435;SDS011;59251;51.326;12.370;2024-01-30T03:12:04;8.93;;;2.92;;
71435;SDS011;59251;51.326;12.370;2024-01-30T03:14:33;9.60;;;2.80;;
71435;SDS011;59251;51.326;12.370;2024-01-30T03:17:00;8.57;;;2.47;;
71435;SDS011;59251;51.326;12.370;2024-01-30T03:19:26;10.18;;;2.88;;
71435;SDS011;59251;51.326;12.370;2024-01-30T03:21:53;8.00;;;2.50;;
71435;SDS011;59251;51.326;12.370;2024-01-30T03:24:20;9.55;;;2.50;;
71435;SDS011;59251;51.326;12.370;2024-01-30T03:26:47;11.53;;;2.83;;
71435;SDS011;59251;51.326;12.370;2024-01-30T03:29:14;9.95;;;3.10;;
71435;SDS011;59251;51.326;12.370;2024-01-30T03:31:42;7.82;;;2.58;;
71435;SDS011;59251;51.326;12.370;2024-01-30T03:34:08;9.48;;;2.95;;
71435;SDS011;59251;51.326;12.370;2024-01-30T03:36:35;9.38;;;2.90;;
71435;SDS011;59251;51.326;12.370;2024-01-30T03:39:02;9.37;;;2.43;;
71435;SDS011;59251;51.326;12.370;2024-01-30T03:41:29;8.73;;;2.80;;
71435;SDS011;59251;51.326;12.370;2024-01-30T03:43:56;11.65;;;3.40;;
71435;SDS011;59251;51.326;12.370;2024-01-30T03:46:23;9.77;;;2.90;;
71435;SDS011;59251;51.326;12.370;2024-01-30T03:48:51;10.32;;;2.90;;
71435;SDS011;59251;51.326;12.370;2024-01-30T03:51:18;8.57;;;2.63;;
71435;SDS011;59251;51.326;12.370;2024-01-30T03:53:44;9.82;;;3.10;;
71435;SDS011;59251;51.326;12.370;2024-01-30T03:56:11;8.35;;;2.92;;
71435;SDS011;59251;51.326;12.370;2024-01-30T03:58:38;8.80;;;3.00;;
71435;SDS011;59251;51.326;12.370;2024-01-30T04:01:05;8.75;;;3.05;;
71435;SDS011;59251;51.326;12.370;2024-01-30T04:03:32;9.53;;;2.60;;
71435;SDS011;59251;51.326;12.370;2024-01-30T04:06:00;9.75;;;3.40;;
71435;SDS011;59251;51.326;12.370;2024-01-30T04:08:27;9.57;;;3.00;;
71435;SDS011;59251;51.326;12.370;2024-01-30T04:10:53;8.88;;;3.10;;
71435;SDS011;59251;51.326;12.370;2024-01-30T04:13:20;10.65;;;3.20;;
71435;SDS011;59251;51.326;12.370;2024-01-30T04:15:47;8.93;;;3.17;;
71435;SDS011;59251;51.326;12.370;2024-01-30T04:18:13;10.00;;;2.85;;
71435;SDS011;59251;51.326;12.370;2024-01-30T04:20:40;8.32;;;2.90;;
71435;SDS011;59251;51.326;12.370;2024-01-30T04:23:08;8.98;;;3.15;;
71435;SDS011;59251;51.326;12.370;2024-01-30T04:25:35;10.68;;;3.30;;
71435;SDS011;59251;51.326;12.370;2024-01-30T04:28:02;10.03;;;2.80;;
71435;SDS011;59251;51.326;12.370;2024-01-30T04:30:29;8.73;;;2.75;;
71435;SDS011;59251;51.326;12.370;2024-01-30T04:32:56;9.60;;;3.10;;
71435;SDS011;59251;51.326;12.370;2024-01-30T04:35:23;10.80;;;3.13;;
71435;SDS011;59251;51.326;12.370;2024-01-30T04:37:51;9.32;;;2.92;;
71435;SDS011;59251;51.326;12.370;2024-01-30T04:40:19;9.17;;;3.03;;
71435;SDS011;59251;51.326;12.370;2024-01-30T04:42:46;12.05;;;3.10;;
71435;SDS011;59251;51.326;12.370;2024-01-30T04:45:13;10.35;;;2.78;;
71435;SDS011;59251;51.326;12.370;2024-01-30T04:47:40;8.50;;;3.10;;
71435;SDS011;59251;51.326;12.370;2024-01-30T04:50:07;9.52;;;3.13;;
71435;SDS011;59251;51.326;12.370;2024-01-30T04:52:34;11.70;;;3.23;;
71435;SDS011;59251;51.326;12.370;2024-01-30T04:55:01;9.00;;;3.00;;
71435;SDS011;59251;51.326;12.370;2024-01-30T04:57:29;10.13;;;3.40;;
71435;SDS011;59251;51.326;12.370;2024-01-30T04:59:58;10.02;;;3.45;;
71435;SDS011;59251;51.326;12.370;2024-01-30T05:02:25;10.23;;;2.95;;
71435;SDS011;59251;51.326;12.370;2024-01-30T05:04:53;8.57;;;2.83;;
71435;SDS011;59251;51.326;12.370;2024-01-30T05:07:19;8.88;;;3.00;;
71435;SDS011;59251;51.326;12.370;2024-01-30T05:09:46;9.77;;;3.60;;
71435;SDS011;59251;51.326;12.370;2024-01-30T05:12:13;9.32;;;2.70;;
71435;SDS011;59251;51.326;12.370;2024-01-30T05:14:41;9.63;;;3.22;;
71435;SDS011;59251;51.326;12.370;2024-01-30T05:17:08;10.77;;;3.17;;
71435;SDS011;59251;51.326;12.370;2024-01-30T05:19:37;8.32;;;2.85;;
71435;SDS011;59251;51.326;12.370;2024-01-30T05:22:04;10.73;;;2.67;;
71435;SDS011;59251;51.326;12.370;2024-01-30T05:24:31;9.85;;;3.35;;
71435;SDS011;59251;51.326;12.370;2024-01-30T05:26:58;10.60;;;3.35;;
71435;SDS011;59251;51.326;12.370;2024-01-30T05:29:25;9.63;;;2.90;;
71435;SDS011;59251;51.326;12.370;2024-01-30T05:31:53;10.15;;;3.13;;
71435;SDS011;59251;51.326;12.370;2024-01-30T05:34:20;12.73;;;3.22;;
71435;SDS011;59251;51.326;12.370;2024-01-30T05:36:46;10.18;;;3.40;;
71435;SDS011;59251;51.326;12.370;2024-01-30T05:39:13;9.13;;;3.45;;
71435;SDS011;59251;51.326;12.370;2024-01-30T05:41:40;9.20;;;3.00;;
71435;SDS011;59251;51.326;12.370;2024-01-30T05:44:07;8.68;;;3.20;;
71435;SDS011;59251;51.326;12.370;2024-01-30T05:46:35;9.93;;;3.03;;
71435;SDS011;59251;51.326;12.370;2024-01-30T05:49:03;10.10;;;2.55;;
71435;SDS011;59251;51.326;12.370;2024-01-30T05:51:31;8.68;;;2.95;;
71435;SDS011;59251;51.326;12.370;2024-01-30T05:53:57;12.10;;;3.70;;
71435;SDS011;59251;51.326;12.370;2024-01-30T05:56:24;13.52;;;3.92;;
71435;SDS011;59251;51.326;12.370;2024-01-30T05:58:51;11.50;;;3.42;;
71435;SDS011;59251;51.326;12.370;2024-01-30T06:01:18;11.35;;;3.10;;
71435;SDS011;59251;51.326;12.370;2024-01-30T06:03:44;9.68;;;3.10;;
71435;SDS011;59251;51.326;12.370;2024-01-30T06:06:13;12.27;;;3.20;;
71435;SDS011;59251;51.326;12.370;2024-01-30T06:08:39;11.13;;;3.20;;
71435;SDS011;59251;51.326;12.370;2024-01-30T06:11:09;12.18;;;3.35;;
71435;SDS011;59251;51.326;12.370;2024-01-30T06:13:36;9.95;;;3.25;;
71435;SDS011;59251;51.326;12.370;2024-01-30T06:16:03;10.98;;;2.85;;
71435;SDS011;59251;51.326;12.370;2024-01-30T06:18:31;10.17;;;3.33;;
71435;SDS011;59251;51.326;12.370;2024-01-30T06:20:58;10.88;;;3.22;;
71435;SDS011;59251;51.326;12.370;2024-01-30T06:23:26;11.57;;;3.22;;
71435;SDS011;59251;51.326;12.370;2024-01-30T06:25:52;11.60;;;3.08;;
71435;SDS011;59251;51.326;12.370;2024-01-30T06:28:19;10.38;;;3.13;;
71435;SDS011;59251;51.326;12.370;2024-01-30T06:30:47;10.10;;;3.37;;
71435;SDS011;59251;51.326;12.370;2024-01-30T06:33:14;9.73;;;3.35;;
71435;SDS011;59251;51.326;12.370;2024-01-30T06:35:40;12.98;;;3.63;;
71435;SDS011;59251;51.326;12.370;2024-01-30T06:38:07;10.55;;;3.42;;
71435;SDS011;59251;51.326;12.370;2024-01-30T06:40:35;13.75;;;3.70;;
71435;SDS011;59251;51.326;12.370;2024-01-30T06:43:03;10.93;;;3.60;;
71435;SDS011;59251;51.326;12.370;2024-01-30T06:45:30;15.27;;;5.35;;
71435;SDS011;59251;51.326;12.370;2024-01-30T06:47:57;12.38;;;3.85;;
71435;SDS011;59251;51.326;12.370;2024-01-30T06:50:24;12.10;;;3.58;;
71435;SDS011;59251;51.326;12.370;2024-01-30T06:52:51;11.63;;;3.55;;
71435;SDS011;59251;51.326;12.370;2024-01-30T06:55:18;10.30;;;3.37;;
71435;SDS011;59251;51.326;12.370;2024-01-30T06:57:46;12.25;;;4.43;;
71435;SDS011;59251;51.326;12.370;2024-01-30T07:00:13;10.52;;;3.70;;
71435;SDS011;59251;51.326;12.370;2024-01-30T07:02:41;12.40;;;3.95;;
71435;SDS011;59251;51.326;12.370;2024-01-30T07:05:08;10.73;;;3.75;;
71435;SDS011;59251;51.326;12.370;2024-01-30T07:07:35;10.43;;;3.50;;
71435;SDS011;59251;51.326;12.370;2024-01-30T07:10:01;16.60;;;4.03;;
71435;SDS011;59251;51.326;12.370;2024-01-30T07:12:30;12.38;;;3.95;;
71435;SDS011;59251;51.326;12.370;2024-01-30T07:14:58;9.57;;;3.28;;
71435;SDS011;59251;51.326;12.370;2024-01-30T07:17:25;10.23;;;3.67;;
71435;SDS011;59251;51.326;12.370;2024-01-30T07:19:52;10.93;;;3.93;;
71435;SDS011;59251;51.326;12.370;2024-01-30T07:22:19;9.25;;;3.35;;
71435;SDS011;59251;51.326;12.370;2024-01-30T07:24:45;12.68;;;3.55;;
71435;SDS011;59251;51.326;12.370;2024-01-30T07:27:14;11.02;;;3.60;;
71435;SDS011;59251;51.326;12.370;2024-01-30T07:29:42;10.35;;;3.20;;
71435;SDS011;59251;51.326;12.370;2024-01-30T07:32:10;10.30;;;3.13;;
71435;SDS011;59251;51.326;12.370;2024-01-30T07:34:37;10.60;;;3.17;;
71435;SDS011;59251;51.326;12.370;2024-01-30T07:37:04;10.93;;;3.42;;
71435;SDS011;59251;51.326;12.370;2024-01-30T07:39:33;11.68;;;3.47;;
71435;SDS011;59251;51.326;12.370;2024-01-30T07:42:01;9.65;;;3.05;;
71435;SDS011;59251;51.326;12.370;2024-01-30T07:44:27;10.97;;;3.60;;
71435;SDS011;59251;51.326;12.370;2024-01-30T07:46:54;9.73;;;3.90;;
71435;SDS011;59251;51.326;12.370;2024-01-30T07:49:24;11.23;;;3.65;;
71435;SDS011;59251;51.326;12.370;2024-01-30T07:51:51;10.60;;;3.40;;
71435;SDS011;59251;51.326;12.370;2024-01-30T07:54:18;12.45;;;3.45;;
71435;SDS011;59251;51.326;12.370;2024-01-30T07:56:44;11.33;;;3.63;;
71435;SDS011;59251;51.326;12.370;2024-01-30T07:59:11;9.52;;;3.40;;
71435;SDS011;59251;51.326;12.370;2024-01-30T08:01:38;11.73;;;3.65;;
71435;SDS011;59251;51.326;12.370;2024-01-30T08:04:05;10.02;;;3.30;;
71435;SDS011;59251;51.326;12.370;2024-01-30T08:06:33;10.57;;;3.60;;
71435;SDS011;59251;51.326;12.370;2024-01-30T08:08:59;11.53;;;3.37;;
71435;SDS011;59251;51.326;12.370;2024-01-30T08:11:26;12.70;;;4.05;;
71435;SDS011;59251;51.326;12.370;2024-01-30T08:13:54;11.13;;;3.38;;
71435;SDS011;59251;51.326;12.370;2024-01-30T08:16:21;10.98;;;3.70;;
71435;SDS011;59251;51.326;12.370;2024-01-30T08:18:48;11.45;;;3.45;;
71435;SDS011;59251;51.326;12.370;2024-01-30T08:21:15;11.20;;;3.80;;
71435;SDS011;59251;51.326;12.370;2024-01-30T08:23:43;13.18;;;3.70;;
71435;SDS011;59251;51.326;12.370;2024-01-30T08:26:10;10.38;;;3.30;;
71435;SDS011;59251;51.326;12.370;2024-01-30T08:28:37;9.10;;;3.20;;
71435;SDS011;59251;51.326;12.370;2024-01-30T08:31:03;9.32;;;3.47;;
71435;SDS011;59251;51.326;12.370;2024-01-30T08:33:30;9.40;;;3.20;;
71435;SDS011;59251;51.326;12.370;2024-01-30T08:35:57;10.93;;;4.53;;
71435;SDS011;59251;51.326;12.370;2024-01-30T08:38:24;10.50;;;3.40;;
71435;SDS011;59251;51.326;12.370;2024-01-30T08:40:52;9.88;;;3.42;;
71435;SDS011;59251;51.326;12.370;2024-01-30T08:43:18;11.57;;;3.35;;
71435;SDS011;59251;51.326;12.370;2024-01-30T08:45:45;10.07;;;3.90;;
71435;SDS011;59251;51.326;12.370;2024-01-30T08:48:12;9.38;;;3.15;;
71435;SDS011;59251;51.326;12.370;2024-01-30T08:50:38;10.57;;;3.20;;
71435;SDS011;59251;51.326;12.370;2024-01-30T08:53:05;9.23;;;3.10;;
71435;SDS011;59251;51.326;12.370;2024-01-30T08:55:32;8.77;;;2.83;;
71435;SDS011;59251;51.326;12.370;2024-01-30T08:58:00;9.60;;;3.70;;
71435;SDS011;59251;51.326;12.370;2024-01-30T09:00:29;11.13;;;3.80;;
71435;SDS011;59251;51.326;12.370;2024-01-30T09:02:55;10.77;;;3.60;;
71435;SDS011;59251;51.326;12.370;2024-01-30T09:05:22;11.90;;;3.80;;
71435;SDS011;59251;51.326;12.370;2024-01-30T09:07:49;10.52;;;3.85;;
71435;SDS011;59251;51.326;12.370;2024-01-30T09:10:15;11.70;;;3.97;;
71435;SDS011;59251;51.326;12.370;2024-01-30T09:12:43;12.70;;;4.07;;
71435;SDS011;59251;51.326;12.370;2024-01-30T09:15:11;11.40;;;4.40;;
71435;SDS011;59251;51.326;12.370;2024-01-30T09:17:38;9.57;;;3.75;;
71435;SDS011;59251;51.326;12.370;2024-01-30T09:20:05;9.82;;;3.35;;
71435;SDS011;59251;51.326;12.370;2024-01-30T09:22:34;9.23;;;3.47;;
71435;SDS011;59251;51.326;12.370;2024-01-30T09:25:01;14.18;;;4.18;;
71435;SDS011;59251;51.326;12.370;2024-01-30T09:27:27;11.38;;;3.95;;
71435;SDS011;59251;51.326;12.370;2024-01-30T09:29:54;12.07;;;4.45;;
71435;SDS011;59251;51.326;12.370;2024-01-30T09:32:24;15.57;;;4.75;;
71435;SDS011;59251;51.326;12.370;2024-01-30T09:34:51;11.20;;;3.40;;
71435;SDS011;59251;51.326;12.370;2024-01-30T09:37:18;9.43;;;3.80;;
71435;SDS011;59251;51.326;12.370;2024-01-30T09:39:45;10.30;;;3.85;;
71435;SDS011;59251;51.326;12.370;2024-01-30T09:42:26;12.52;;;3.75;;
71435;SDS011;59251;51.326;12.370;2024-01-30T09:44:57;11.38;;;3.85;;
71435;SDS011;59251;51.326;12.370;2024-01-30T09:47:26;12.03;;;3.90;;
71435;SDS011;59251;51.326;12.370;2024-01-30T09:49:52;9.43;;;3.42;;
71435;SDS011;59251;51.326;12.370;2024-01-30T09:52:19;11.10;;;4.30;;
71435;SDS011;59251;51.326;12.370;2024-01-30T09:54:46;9.48;;;3.45;;
71435;SDS011;59251;51.326;12.370;2024-01-30T09:57:15;11.70;;;4.20;;
71435;SDS011;59251;51.326;12.370;2024-01-30T09:59:42;12.43;;;4.03;;
71435;SDS011;59251;51.326;12.370;2024-01-30T10:02:09;13.20;;;3.42;;
71435;SDS011;59251;51.326;12.370;2024-01-30T10:04:37;13.35;;;4.22;;
71435;SDS011;59251;51.326;12.370;2024-01-30T10:07:04;10.43;;;3.80;;
71435;SDS011;59251;51.326;12.370;2024-01-30T10:09:32;14.20;;;3.58;;
71435;SDS011;59251;51.326;12.370;2024-01-30T10:12:00;15.20;;;4.50;;
71435;SDS011;59251;51.326;12.370;2024-01-30T10:14:28;10.73;;;3.70;;
71435;SDS011;59251;51.326;12.370;2024-01-30T10:16:55;10.40;;;3.75;;
71435;SDS011;59251;51.326;12.370;2024-01-30T10:19:24;11.00;;;3.90;;
71435;SDS011;59251;51.326;12.370;2024-01-30T10:21:52;11.52;;;4.38;;
71435;SDS011;59251;51.326;12.370;2024-01-30T10:24:19;9.60;;;3.47;;
71435;SDS011;59251;51.326;12.370;2024-01-30T10:26:50;12.13;;;3.65;;
71435;SDS011;59251;51.326;12.370;2024-01-30T10:29:17;11.27;;;4.05;;
71435;SDS011;59251;51.326;12.370;2024-01-30T10:31:44;11.20;;;3.70;;
71435;SDS011;59251;51.326;12.370;2024-01-30T10:34:10;10.50;;;3.55;;
71435;SDS011;59251;51.326;12.370;2024-01-30T10:36:39;11.23;;;3.73;;
71435;SDS011;59251;51.326;12.370;2024-01-30T10:39:08;11.52;;;4.45;;
71435;SDS011;59251;51.326;12.370;2024-01-30T10:41:37;11.70;;;4.82;;
71435;SDS011;59251;51.326;12.370;2024-01-30T10:44:08;13.98;;;4.75;;
71435;SDS011;59251;51.326;12.370;2024-01-30T10:46:37;11.10;;;3.97;;
71435;SDS011;59251;51.326;12.370;2024-01-30T10:49:05;11.70;;;3.87;;
71435;SDS011;59251;51.326;12.370;2024-01-30T10:51:31;12.57;;;4.55;;
71435;SDS011;59251;51.326;12.370;2024-01-30T10:53:58;13.40;;;4.47;;
71435;SDS011;59251;51.326;12.370;2024-01-30T10:56:28;12.48;;;4.10;;
71435;SDS011;59251;51.326;12.370;2024-01-30T10:58:56;13.13;;;4.80;;
71435;SDS011;59251;51.326;12.370;2024-01-30T11:01:23;10.97;;;4.30;;
71435;SDS011;59251;51.326;12.370;2024-01-30T11:03:52;11.35;;;4.00;;
71435;SDS011;59251;51.326;12.370;2024-01-30T11:06:21;12.43;;;4.80;;
71435;SDS011;59251;51.326;12.370;2024-01-30T11:08:59;10.20;;;3.70;;
71435;SDS011;59251;51.326;12.370;2024-01-30T11:11:29;10.02;;;3.90;;
71435;SDS011;59251;51.326;12.370;2024-01-30T11:14:00;11.13;;;4.03;;
71435;SDS011;59251;51.326;12.370;2024-01-30T11:16:30;11.75;;;4.32;;
71435;SDS011;59251;51.326;12.370;2024-01-30T11:19:00;13.07;;;4.38;;
71435;SDS011;59251;51.326;12.370;2024-01-30T11:21:27;11.32;;;4.57;;
71435;SDS011;59251;51.326;12.370;2024-01-30T11:23:54;13.43;;;4.07;;
71435;SDS011;59251;51.326;12.370;2024-01-30T11:26:23;14.85;;;4.18;;
71435;SDS011;59251;51.326;12.370;2024-01-30T11:28:56;11.23;;;3.90;;
71435;SDS011;59251;51.326;12.370;2024-01-30T11:31:23;11.07;;;4.60;;
71435;SDS011;59251;51.326;12.370;2024-01-30T11:33:52;13.90;;;4.13;;
71435;SDS011;59251;51.326;12.370;2024-01-30T11:36:19;13.20;;;4.60;;
71435;SDS011;59251;51.326;12.370;2024-01-30T11:38:51;9.27;;;4.22;;
71435;SDS011;59251;51.326;12.370;2024-01-30T11:41:18;11.80;;;4.32;;
71435;SDS011;59251;51.326;12.370;2024-01-30T11:43:51;11.15;;;4.18;;
71435;SDS011;59251;51.326;12.370;2024-01-30T11:46:19;12.85;;;4.20;;
71435;SDS011;59251;51.326;12.370;2024-01-30T11:48:46;11.77;;;4.20;;
71435;SDS011;59251;51.326;12.370;2024-01-30T11:51:13;11.05;;;4.40;;
71435;SDS011;59251;51.326;12.370;2024-01-30T11:53:41;13.25;;;4.80;;
71435;SDS011;59251;51.326;12.370;2024-01-30T11:56:08;12.88;;;5.05;;
71435;SDS011;59251;51.326;12.370;2024-01-30T11:58:34;13.43;;;4.95;;
71435;SDS011;59251;51.326;12.370;2024-01-30T12:01:01;10.93;;;4.30;;
71435;SDS011;59251;51.326;12.370;2024-01-30T12:03:29;12.45;;;4.68;;
71435;SDS011;59251;51.326;12.370;2024-01-30T12:05:56;16.52;;;4.13;;
71435;SDS011;59251;51.326;12.370;2024-01-30T12:08:24;10.50;;;3.90;;
71435;SDS011;59251;51.326;12.370;2024-01-30T12:10:55;10.40;;;4.40;;
71435;SDS011;59251;51.326;12.370;2024-01-30T12:13:22;10.45;;;4.30;;
71435;SDS011;59251;51.326;12.370;2024-01-30T12:15:49;14.90;;;4.68;;
71435;SDS011;59251;51.326;12.370;2024-01-30T12:18:18;11.48;;;4.50;;
71435;SDS011;59251;51.326;12.370;2024-01-30T12:20:47;9.07;;;3.60;;
71435;SDS011;59251;51.326;12.370;2024-01-30T12:23:24;10.43;;;4.30;;
71435;SDS011;59251;51.326;12.370;2024-01-30T12:25:51;10.23;;;4.18;;
71435;SDS011;59251;51.326;12.370;2024-01-30T12:28:18;9.55;;;4.05;;
71435;SDS011;59251;51.326;12.370;2024-01-30T12:30:46;10.98;;;4.38;;
71435;SDS011;59251;51.326;12.370;2024-01-30T12:33:15;10.70;;;4.30;;
71435;SDS011;59251;51.326;12.370;2024-01-30T12:35:46;10.82;;;4.05;;
71435;SDS011;59251;51.326;12.370;2024-01-30T12:38:13;11.75;;;4.30;;
71435;SDS011;59251;51.326;12.370;2024-01-30T12:40:40;12.50;;;4.50;;
71435;SDS011;59251;51.326;12.370;2024-01-30T12:43:07;9.98;;;4.00;;
71435;SDS011;59251;51.326;12.370;2024-01-30T12:45:34;12.25;;;4.07;;
71435;SDS011;59251;51.326;12.370;2024-01-30T12:48:02;9.80;;;3.45;;
71435;SDS011;59251;51.326;12.370;2024-01-30T12:50:29;10.38;;;3.58;;
71435;SDS011;59251;51.326;12.370;2024-01-30T12:52:57;10.18;;;4.07;;
71435;SDS011;59251;51.326;12.370;2024-01-30T12:55:24;10.45;;;4.05;;
71435;SDS011;59251;51.326;12.370;2024-01-30T12:57:53;11.05;;;4.20;;
71435;SDS011;59251;51.326;12.370;2024-01-30T13:00:20;11.13;;;3.63;;
71435;SDS011;59251;51.326;12.370;2024-01-30T13:02:47;10.57;;;3.45;;
71435;SDS011;59251;51.326;12.370;2024-01-30T13:05:14;9.30;;;3.70;;
71435;SDS011;59251;51.326;12.370;2024-01-30T13:07:41;9.68;;;3.83;;
71435;SDS011;59251;51.326;12.370;2024-01-30T13:10:09;8.57;;;3.55;;
71435;SDS011;59251;51.326;12.370;2024-01-30T13:12:36;10.43;;;3.60;;
71435;SDS011;59251;51.326;12.370;2024-01-30T13:15:04;9.85;;;4.10;;
71435;SDS011;59251;51.326;12.370;2024-01-30T13:17:31;10.77;;;4.00;;
71435;SDS011;59251;51.326;12.370;2024-01-30T13:19:58;10.77;;;4.00;;
71435;SDS011;59251;51.326;12.370;2024-01-30T13:22:25;8.90;;;3.78;;
71435;SDS011;59251;51.326;12.370;2024-01-30T13:24:51;11.35;;;4.22;;
71435;SDS011;59251;51.326;12.370;2024-01-30T13:27:19;10.73;;;3.92;;
71435;SDS011;59251;51.326;12.370;2024-01-30T13:29:46;12.18;;;4.15;;
71435;SDS011;59251;51.326;12.370;2024-01-30T13:32:13;10.73;;;4.50;;
71435;SDS011;59251;51.326;12.370;2024-01-30T13:34:40;11.45;;;4.43;;
71435;SDS011;59251;51.326;12.370;2024-01-30T13:37:08;9.10;;;4.20;;
71435;SDS011;59251;51.326;12.370;2024-01-30T13:39:35;11.38;;;4.57;;
71435;SDS011;59251;51.326;12.370;2024-01-30T13:42:02;11.65;;;4.30;;
71435;SDS011;59251;51.326;12.370;2024-01-30T13:44:31;11.43;;;4.50;;
71435;SDS011;59251;51.326;12.370;2024-01-30T13:46:58;12.40;;;4.20;;
71435;SDS011;59251;51.326;12.370;2024-01-30T13:49:25;11.07;;;4.53;;
71435;SDS011;59251;51.326;12.370;2024-01-30T13:51:52;12.10;;;4.45;;
71435;SDS011;59251;51.326;12.370;2024-01-30T13:54:19;10.07;;;4.53;;
71435;SDS011;59251;51.326;12.370;2024-01-30T13:56:45;11.70;;;4.32;;
71435;SDS011;59251;51.326;12.370;2024-01-30T13:59:12;11.95;;;4.28;;
71435;SDS011;59251;51.326;12.370;2024-01-30T14:01:40;12.50;;;5.15;;
71435;SDS011;59251;51.326;12.370;2024-01-30T14:04:07;12.48;;;5.38;;
71435;SDS011;59251;51.326;12.370;2024-01-30T14:06:34;11.73;;;4.38;;
71435;SDS011;59251;51.326;12.370;2024-01-30T14:09:01;11.48;;;4.50;;
71435;SDS011;59251;51.326;12.370;2024-01-30T14:11:29;8.55;;;3.97;;
71435;SDS011;59251;51.326;12.370;2024-01-30T14:13:55;13.65;;;4.60;;
71435;SDS011;59251;51.326;12.370;2024-01-30T14:16:23;11.18;;;4.50;;
71435;SDS011;59251;51.326;12.370;2024-01-30T14:18:51;10.93;;;4.38;;
71435;SDS011;59251;51.326;12.370;2024-01-30T14:21:19;12.60;;;4.72;;
71435;SDS011;59251;51.326;12.370;2024-01-30T14:23:46;12.23;;;4.32;;
71435;SDS011;59251;51.326;12.370;2024-01-30T14:26:13;11.13;;;4.40;;